createdAt,value
2017-08-28T00:02:17.452Z,7.87
2017-08-28T00:04:51.033Z,7.30
2017-08-28T00:07:24.550Z,7.30
2017-08-28T00:09:58.298Z,6.85
2017-08-28T00:12:31.830Z,7.45
2017-08-28T00:15:05.378Z,7.00
2017-08-28T00:17:39.015Z,6.40
2017-08-28T00:20:12.630Z,6.60
2017-08-28T00:22:46.138Z,5.90
2017-08-28T00:25:19.691Z,6.50
2017-08-28T00:27:53.238Z,6.75
2017-08-28T00:30:26.787Z,6.50
2017-08-28T00:33:00.452Z,6.55
2017-08-28T00:35:34.011Z,7.65
2017-08-28T00:38:07.521Z,7.05
2017-08-28T00:40:41.082Z,7.30
2017-08-28T00:43:15.596Z,6.78
2017-08-28T00:45:49.342Z,7.07
2017-08-28T00:48:22.941Z,6.35
2017-08-28T00:50:56.446Z,7.32
2017-08-28T00:53:30.865Z,6.20
2017-08-28T00:56:04.553Z,6.60
2017-08-28T00:58:38.083Z,6.95
2017-08-28T01:01:11.673Z,6.62
2017-08-28T01:03:45.342Z,6.60
2017-08-28T01:06:19.059Z,6.95
2017-08-28T01:08:52.663Z,8.45
2017-08-28T01:11:26.254Z,6.37
2017-08-28T01:13:59.785Z,6.37
2017-08-28T01:16:33.495Z,6.28
2017-08-28T01:19:07.092Z,6.65
2017-08-28T01:21:40.584Z,5.95
2017-08-28T01:24:14.152Z,7.43
2017-08-28T01:26:47.722Z,6.47
2017-08-28T01:29:21.467Z,6.53
2017-08-28T01:31:58.492Z,6.05
2017-08-28T01:34:32.066Z,6.00
2017-08-28T01:37:05.636Z,5.25
2017-08-28T01:39:39.352Z,5.87
2017-08-28T01:42:12.850Z,6.10
2017-08-28T01:44:46.423Z,5.85
2017-08-28T01:47:20.012Z,7.28
2017-08-28T01:49:53.701Z,7.20
2017-08-28T01:52:27.245Z,5.62
2017-08-28T01:55:00.755Z,6.82
2017-08-28T01:57:34.295Z,6.45
2017-08-28T02:00:07.949Z,7.28
2017-08-28T02:02:41.548Z,6.85
2017-08-28T02:05:15.143Z,6.80
2017-08-28T02:07:48.844Z,5.70
2017-08-28T02:10:22.529Z,6.25
2017-08-28T02:12:56.042Z,7.37
2017-08-28T02:15:29.606Z,7.15
2017-08-28T02:18:03.226Z,5.80
2017-08-28T02:20:36.928Z,6.62
2017-08-28T02:23:10.425Z,6.75
2017-08-28T02:25:44.060Z,5.70
2017-08-28T02:28:17.612Z,6.00
2017-08-28T02:30:51.136Z,6.47
2017-08-28T02:33:24.788Z,6.85
2017-08-28T02:35:58.288Z,5.78
2017-08-28T02:38:31.809Z,5.05
2017-08-28T02:41:05.335Z,5.75
2017-08-28T02:43:38.984Z,4.57
2017-08-28T02:46:12.636Z,5.30
2017-08-28T02:48:46.208Z,6.25
2017-08-28T02:51:19.717Z,5.80
2017-08-28T02:53:53.301Z,5.50
2017-08-28T02:56:26.852Z,6.15
2017-08-28T02:59:00.597Z,6.80
2017-08-28T03:01:34.168Z,6.03
2017-08-28T03:04:07.698Z,6.40
2017-08-28T03:06:41.227Z,6.25
2017-08-28T03:09:14.800Z,5.37
2017-08-28T03:11:48.514Z,5.25
2017-08-28T03:14:22.057Z,5.70
2017-08-28T03:16:55.790Z,6.40
2017-08-28T03:19:29.435Z,6.18
2017-08-28T03:22:03.075Z,5.90
2017-08-28T03:24:36.832Z,6.80
2017-08-28T03:27:10.381Z,5.93
2017-08-28T03:29:44.768Z,6.10
2017-08-28T03:35:17.860Z,5.85
2017-08-28T03:37:51.413Z,6.37
2017-08-28T03:40:24.909Z,5.20
2017-08-28T03:42:58.437Z,5.93
2017-08-28T03:45:31.944Z,6.20
2017-08-28T03:48:05.495Z,5.05
2017-08-28T03:50:39.146Z,5.55
2017-08-28T03:53:12.642Z,5.82
2017-08-28T03:55:46.215Z,6.28
2017-08-28T03:58:19.824Z,7.20
2017-08-28T04:00:53.371Z,5.68
2017-08-28T04:03:27.089Z,6.68
2017-08-28T04:06:02.635Z,6.25
2017-08-28T04:08:36.157Z,6.03
2017-08-28T04:11:09.656Z,6.15
2017-08-28T04:13:43.221Z,6.03
2017-08-28T04:16:16.872Z,6.95
2017-08-28T04:18:50.376Z,6.55
2017-08-28T04:21:23.958Z,6.20
2017-08-28T04:23:57.499Z,6.50
2017-08-28T04:26:31.794Z,6.55
2017-08-28T04:29:05.437Z,6.15
2017-08-28T04:31:39.046Z,6.20
2017-08-28T04:34:12.818Z,6.65
2017-08-28T04:36:46.347Z,6.05
2017-08-28T04:39:20.108Z,6.10
2017-08-28T04:41:53.663Z,6.20
2017-08-28T04:44:27.208Z,6.05
2017-08-28T04:47:07.172Z,5.65
2017-08-28T04:49:40.710Z,6.50
2017-08-28T04:52:14.340Z,7.28
2017-08-28T04:54:47.912Z,6.65
2017-08-28T04:57:21.522Z,5.80
2017-08-28T04:59:55.119Z,5.43
2017-08-28T05:02:28.677Z,6.50
2017-08-28T05:05:02.393Z,5.70
2017-08-28T05:07:36.049Z,6.93
2017-08-28T05:10:09.628Z,6.45
2017-08-28T05:12:43.200Z,6.60
2017-08-28T05:15:16.726Z,5.32
2017-08-28T05:17:50.332Z,6.15
2017-08-28T05:20:23.939Z,6.07
2017-08-28T05:22:57.520Z,6.50
2017-08-28T05:25:31.110Z,5.80
2017-08-28T05:28:04.768Z,6.60
2017-08-28T05:30:38.345Z,6.70
2017-08-28T05:33:11.844Z,5.97
2017-08-28T05:35:45.444Z,5.85
2017-08-28T05:38:18.967Z,6.10
2017-08-28T05:40:52.649Z,7.35
2017-08-28T05:43:26.308Z,7.70
2017-08-28T05:45:59.888Z,7.47
2017-08-28T05:48:33.489Z,7.43
2017-08-28T05:51:07.268Z,7.47
2017-08-28T05:53:40.813Z,8.15
2017-08-28T05:56:15.163Z,7.43
2017-08-28T05:58:48.672Z,8.15
2017-08-28T06:01:23.284Z,6.55
2017-08-28T06:03:57.026Z,7.85
2017-08-28T06:06:30.524Z,7.43
2017-08-28T06:09:04.079Z,7.82
2017-08-28T06:11:37.682Z,7.30
2017-08-28T06:14:11.395Z,7.25
2017-08-28T06:16:44.897Z,6.50
2017-08-28T06:19:18.412Z,7.60
2017-08-28T06:21:52.708Z,7.03
2017-08-28T06:24:26.249Z,7.18
2017-08-28T06:26:59.747Z,7.40
2017-08-28T06:29:33.326Z,8.07
2017-08-28T06:32:06.918Z,7.53
2017-08-28T06:34:40.468Z,8.82
2017-08-28T06:37:14.001Z,7.55
2017-08-28T06:39:47.710Z,6.62
2017-08-28T06:42:21.277Z,9.40
2017-08-28T06:44:54.790Z,7.10
2017-08-28T06:47:28.460Z,6.95
2017-08-28T06:50:02.106Z,6.03
2017-08-28T06:52:35.665Z,6.70
2017-08-28T06:55:09.211Z,7.00
2017-08-28T06:57:42.794Z,6.18
2017-08-28T07:00:16.428Z,6.40
2017-08-28T07:02:50.009Z,5.95
2017-08-28T07:05:23.521Z,6.07
2017-08-28T07:07:57.069Z,6.60
2017-08-28T07:10:30.737Z,5.65
2017-08-28T07:13:04.308Z,5.30
2017-08-28T07:15:37.831Z,5.70
2017-08-28T07:18:11.412Z,6.12
2017-08-28T07:20:44.944Z,5.65
2017-08-28T07:23:18.532Z,5.82
2017-08-28T07:25:52.090Z,5.75
2017-08-28T07:28:25.583Z,6.65
2017-08-28T07:30:59.146Z,5.78
2017-08-28T07:33:32.818Z,6.30
2017-08-28T07:36:06.526Z,5.68
2017-08-28T07:38:40.025Z,5.60
2017-08-28T07:41:13.543Z,5.60
2017-08-28T07:43:47.243Z,5.50
2017-08-28T07:46:20.955Z,6.22
2017-08-28T07:48:54.624Z,5.93
2017-08-28T07:51:28.185Z,5.50
2017-08-28T07:54:01.774Z,5.82
2017-08-28T07:56:35.437Z,5.30
2017-08-28T07:59:09.015Z,5.82
2017-08-28T08:01:42.565Z,4.75
2017-08-28T08:04:16.131Z,5.75
2017-08-28T08:06:49.834Z,5.35
2017-08-28T08:09:23.482Z,6.00
2017-08-28T08:11:57.071Z,5.22
2017-08-28T08:14:30.588Z,6.18
2017-08-28T08:17:04.099Z,5.03
2017-08-28T08:19:37.792Z,5.95
2017-08-28T08:22:11.293Z,4.90
2017-08-28T08:24:45.608Z,5.80
2017-08-28T08:27:19.112Z,5.62
2017-08-28T08:29:52.776Z,6.78
2017-08-28T08:32:26.383Z,6.05
2017-08-28T08:34:59.964Z,6.40
2017-08-28T08:37:33.516Z,5.87
2017-08-28T08:40:07.176Z,6.62
2017-08-28T08:42:40.739Z,6.20
2017-08-28T08:45:14.313Z,6.43
2017-08-28T08:47:47.849Z,6.18
2017-08-28T08:50:21.393Z,5.95
2017-08-28T08:52:55.047Z,6.47
2017-08-28T08:55:28.686Z,6.05
2017-08-28T08:58:02.238Z,5.53
2017-08-28T09:00:35.752Z,5.32
2017-08-28T09:03:09.581Z,5.90
2017-08-28T09:05:43.083Z,4.80
2017-08-28T09:08:16.660Z,5.30
2017-08-28T09:10:50.216Z,5.97
2017-08-28T09:13:23.872Z,5.45
2017-08-28T09:15:57.395Z,4.90
2017-08-28T09:18:31.012Z,5.22
2017-08-28T09:21:04.521Z,5.03
2017-08-28T09:23:38.541Z,5.55
2017-08-28T09:26:12.263Z,5.97
2017-08-28T09:28:45.800Z,5.28
2017-08-28T09:31:19.349Z,5.40
2017-08-28T09:33:52.889Z,5.20
2017-08-28T09:36:26.397Z,6.07
2017-08-28T09:38:59.934Z,5.32
2017-08-28T09:41:34.320Z,5.50
2017-08-28T09:44:07.977Z,5.60
2017-08-28T09:46:41.508Z,4.95
2017-08-28T09:49:15.113Z,5.12
2017-08-28T09:51:48.672Z,5.70
2017-08-28T09:54:22.201Z,4.70
2017-08-28T09:56:55.765Z,5.25
2017-08-28T09:59:29.309Z,5.57
2017-08-28T10:02:02.829Z,5.20
2017-08-28T10:04:36.365Z,5.43
2017-08-28T10:07:10.042Z,5.40
2017-08-28T10:09:43.648Z,5.18
2017-08-28T10:12:17.178Z,5.57
2017-08-28T10:14:50.840Z,5.28
2017-08-28T10:17:24.429Z,5.90
2017-08-28T10:19:58.004Z,6.28
2017-08-28T10:22:31.578Z,5.62
2017-08-28T10:25:05.231Z,5.65
2017-08-28T10:27:38.786Z,6.07
2017-08-28T10:30:12.383Z,5.35
2017-08-28T10:32:46.137Z,4.93
2017-08-28T10:35:19.700Z,5.75
2017-08-28T10:37:53.354Z,5.60
2017-08-28T10:40:26.905Z,5.15
2017-08-28T10:43:00.480Z,6.60
2017-08-28T10:45:34.151Z,6.05
2017-08-28T10:48:07.736Z,6.07
2017-08-28T10:50:41.250Z,5.53
2017-08-28T10:53:16.565Z,6.05
2017-08-28T10:55:50.237Z,5.53
2017-08-28T10:58:23.931Z,6.25
2017-08-28T11:00:57.481Z,5.30
2017-08-28T11:03:31.025Z,5.45
2017-08-28T11:06:04.742Z,4.82
2017-08-28T11:08:38.541Z,4.43
2017-08-28T11:11:12.059Z,6.05
2017-08-28T11:13:45.766Z,5.35
2017-08-28T11:16:19.452Z,5.85
2017-08-28T11:18:53.067Z,5.40
2017-08-28T11:21:26.688Z,5.35
2017-08-28T11:24:00.410Z,5.90
2017-08-28T11:26:34.084Z,5.95
2017-08-28T11:29:07.683Z,6.05
2017-08-28T11:31:41.315Z,5.47
2017-08-28T11:34:14.974Z,5.18
2017-08-28T11:36:48.578Z,5.80
2017-08-28T11:39:22.221Z,5.57
2017-08-28T11:41:55.879Z,5.57
2017-08-28T11:44:29.455Z,5.30
2017-08-28T11:47:03.131Z,5.07
2017-08-28T11:49:36.788Z,5.35
2017-08-28T11:52:10.489Z,5.32
2017-08-28T11:54:43.994Z,5.62
2017-08-28T11:57:17.712Z,6.03
2017-08-28T11:59:51.316Z,5.35
2017-08-28T12:02:25.013Z,6.03
2017-08-28T12:04:58.625Z,5.80
2017-08-28T12:07:32.202Z,5.68
2017-08-28T12:10:06.390Z,6.68
2017-08-28T12:12:40.025Z,5.97
2017-08-28T12:15:13.751Z,6.22
2017-08-28T12:17:47.303Z,5.50
2017-08-28T12:20:21.724Z,6.07
2017-08-28T12:22:55.301Z,5.43
2017-08-28T12:25:28.956Z,5.62
2017-08-28T12:28:02.596Z,6.32
2017-08-28T12:30:36.383Z,5.87
2017-08-28T12:33:10.085Z,5.22
2017-08-28T12:35:43.647Z,5.62
2017-08-28T12:38:17.216Z,7.22
2017-08-28T12:40:50.840Z,6.30
2017-08-28T12:43:24.356Z,6.68
2017-08-28T12:45:57.872Z,6.55
2017-08-28T12:48:31.413Z,6.62
2017-08-28T12:51:05.082Z,6.65
2017-08-28T12:53:38.598Z,5.87
2017-08-28T12:56:12.290Z,6.75
2017-08-28T12:58:46.089Z,6.37
2017-08-28T13:01:20.764Z,6.68
2017-08-28T13:03:55.425Z,6.10
2017-08-28T13:06:29.048Z,6.62
2017-08-28T13:09:02.653Z,6.78
2017-08-28T13:11:36.406Z,6.68
2017-08-28T13:14:11.234Z,7.10
2017-08-28T13:16:45.077Z,6.35
2017-08-28T13:19:18.633Z,6.40
2017-08-28T13:21:52.188Z,6.95
2017-08-28T13:24:25.723Z,6.85
2017-08-28T13:26:59.510Z,6.75
2017-08-28T13:29:33.280Z,6.10
2017-08-28T13:32:07.021Z,6.22
2017-08-28T13:34:40.879Z,7.28
2017-08-28T13:37:14.440Z,6.60
2017-08-28T13:39:48.159Z,6.65
2017-08-28T13:42:21.858Z,7.37
2017-08-28T13:44:57.156Z,6.65
2017-08-28T13:47:30.914Z,7.68
2017-08-28T13:50:04.604Z,7.75
2017-08-28T13:52:38.377Z,7.75
2017-08-28T13:55:12.863Z,6.75
2017-08-28T13:57:46.482Z,8.13
2017-08-28T14:00:20.218Z,8.63
2017-08-28T14:02:53.983Z,8.73
2017-08-28T14:05:27.895Z,8.85
2017-08-28T14:08:03.336Z,9.18
2017-08-28T14:10:37.019Z,8.63
2017-08-28T14:13:10.778Z,8.75
2017-08-28T14:15:44.447Z,8.85
2017-08-28T14:18:17.984Z,9.32
2017-08-28T14:20:51.622Z,9.10
2017-08-28T14:23:25.199Z,8.65
2017-08-28T14:25:58.749Z,9.20
2017-08-28T14:28:32.612Z,8.85
2017-08-28T14:31:06.260Z,9.18
2017-08-28T14:33:39.848Z,8.85
2017-08-28T14:36:14.532Z,9.75
2017-08-28T14:38:48.098Z,10.15
2017-08-28T14:41:21.872Z,8.63
2017-08-28T14:43:55.426Z,8.95
2017-08-28T14:46:29.073Z,9.35
2017-08-28T14:49:02.860Z,9.18
2017-08-28T14:51:36.714Z,10.00
2017-08-28T14:54:10.376Z,9.38
2017-08-28T14:56:44.079Z,10.65
2017-08-28T14:59:17.798Z,10.50
2017-08-28T15:01:51.554Z,10.05
2017-08-28T15:04:25.125Z,9.40
2017-08-28T15:06:58.792Z,9.98
2017-08-28T15:09:32.594Z,8.98
2017-08-28T15:12:06.375Z,9.02
2017-08-28T15:14:40.096Z,9.15
2017-08-28T15:17:13.763Z,9.80
2017-08-28T15:19:47.448Z,8.93
2017-08-28T15:22:22.156Z,9.77
2017-08-28T15:24:56.060Z,8.65
2017-08-28T15:27:29.826Z,8.80
2017-08-28T15:30:03.366Z,8.88
2017-08-28T15:32:37.012Z,9.07
2017-08-28T15:35:10.529Z,9.43
2017-08-28T15:37:44.308Z,9.43
2017-08-28T15:40:18.064Z,9.13
2017-08-28T15:42:51.796Z,8.90
2017-08-28T15:45:25.508Z,9.30
2017-08-28T15:47:59.233Z,8.50
2017-08-28T15:50:32.925Z,9.23
2017-08-28T15:53:06.574Z,8.70
2017-08-28T15:55:40.134Z,8.45
2017-08-28T15:58:13.844Z,8.82
2017-08-28T16:00:47.608Z,9.65
2017-08-28T16:03:21.289Z,10.18
2017-08-28T16:05:54.952Z,10.18
2017-08-28T16:08:28.485Z,9.02
2017-08-28T16:11:02.308Z,8.88
2017-08-28T16:13:35.869Z,9.93
2017-08-28T16:16:09.557Z,9.32
2017-08-28T16:18:43.249Z,10.10
2017-08-28T16:21:16.787Z,9.68
2017-08-28T16:23:50.461Z,8.73
2017-08-28T16:26:24.111Z,9.80
2017-08-28T16:28:58.643Z,10.55
2017-08-28T16:31:32.219Z,10.57
2017-08-28T16:34:06.010Z,10.13
2017-08-28T16:36:39.768Z,9.77
2017-08-28T16:39:13.484Z,9.77
2017-08-28T16:41:47.051Z,10.88
2017-08-28T16:44:20.657Z,10.15
2017-08-28T16:46:54.270Z,9.23
2017-08-28T16:49:28.014Z,10.45
2017-08-28T16:52:01.807Z,9.85
2017-08-28T16:54:35.368Z,9.55
2017-08-28T16:57:08.933Z,9.98
2017-08-28T16:59:42.713Z,10.90
2017-08-28T17:02:16.265Z,10.23
2017-08-28T17:04:49.989Z,9.15
2017-08-28T17:07:23.582Z,9.95
2017-08-28T17:09:57.195Z,9.75
2017-08-28T17:12:31.021Z,9.85
2017-08-28T17:15:04.640Z,9.20
2017-08-28T17:17:38.304Z,9.55
2017-08-28T17:20:11.982Z,9.23
2017-08-28T17:22:46.593Z,9.60
2017-08-28T17:25:20.274Z,9.40
2017-08-28T17:27:54.029Z,9.82
2017-08-28T17:30:27.737Z,10.10
2017-08-28T17:33:01.439Z,12.10
2017-08-28T17:35:34.996Z,9.80
2017-08-28T17:38:08.637Z,9.73
2017-08-28T17:40:43.105Z,10.40
2017-08-28T17:43:16.671Z,10.35
2017-08-28T17:45:50.367Z,10.77
2017-08-28T17:48:24.080Z,9.95
2017-08-28T17:50:57.794Z,10.10
2017-08-28T17:53:31.484Z,10.25
2017-08-28T17:56:05.430Z,11.18
2017-08-28T17:58:39.069Z,10.20
2017-08-28T18:01:12.573Z,9.85
2017-08-28T18:03:46.298Z,11.07
2017-08-28T18:06:19.872Z,10.45
2017-08-28T18:08:53.620Z,11.23
2017-08-28T18:11:27.256Z,10.85
2017-08-28T18:14:01.036Z,11.50
2017-08-28T18:16:34.637Z,10.50
2017-08-28T18:19:08.393Z,11.60
2017-08-28T18:21:41.939Z,10.43
2017-08-28T18:24:15.619Z,10.85
2017-08-28T18:26:49.338Z,11.73
2017-08-28T18:29:23.012Z,9.98
2017-08-28T18:31:56.659Z,11.25
2017-08-28T18:34:30.212Z,9.98
2017-08-28T18:37:03.778Z,10.73
2017-08-28T18:39:37.485Z,10.90
2017-08-28T18:42:11.065Z,11.25
2017-08-28T18:44:44.756Z,11.20
2017-08-28T18:47:18.472Z,10.32
2017-08-28T18:49:52.289Z,10.48
2017-08-28T18:52:26.047Z,10.68
2017-08-28T18:54:59.717Z,10.20
2017-08-28T18:57:33.416Z,11.30
2017-08-28T19:00:06.989Z,10.63
2017-08-28T19:02:40.653Z,11.23
2017-08-28T19:05:14.276Z,10.30
2017-08-28T19:07:47.937Z,10.98
2017-08-28T19:10:21.613Z,11.45
2017-08-28T19:12:55.376Z,11.65
2017-08-28T19:15:29.187Z,11.32
2017-08-28T19:18:02.973Z,11.70
2017-08-28T19:20:36.815Z,10.60
2017-08-28T19:23:10.541Z,10.82
2017-08-28T19:25:44.145Z,10.95
2017-08-28T19:28:17.763Z,11.93
2017-08-28T19:30:51.410Z,11.95
2017-08-28T19:33:25.899Z,11.52
2017-08-28T19:35:59.613Z,11.90
2017-08-28T19:38:33.139Z,13.62
2017-08-28T19:45:41.167Z,11.93
2017-08-28T19:48:14.866Z,11.07
2017-08-28T19:50:48.427Z,10.68
2017-08-28T19:53:22.088Z,11.77
2017-08-28T19:55:55.783Z,11.40
2017-08-28T19:58:29.358Z,11.68
2017-08-28T20:01:03.004Z,12.30
2017-08-28T20:03:36.717Z,11.80
2017-08-28T20:06:10.493Z,12.23
2017-08-28T20:08:44.308Z,11.90
2017-08-28T20:11:18.009Z,11.23
2017-08-28T20:13:51.662Z,11.60
2017-08-28T20:16:25.393Z,11.80
2017-08-28T20:18:59.036Z,13.68
2017-08-28T20:21:32.675Z,17.52
2017-08-28T20:24:06.284Z,14.18
2017-08-28T20:26:39.862Z,15.02
2017-08-28T20:29:13.521Z,16.92
2017-08-28T20:31:47.114Z,14.65
2017-08-28T20:34:20.684Z,14.40
2017-08-28T20:36:54.289Z,14.85
2017-08-28T20:39:28.069Z,13.32
2017-08-28T20:42:01.645Z,13.55
2017-08-28T20:44:35.200Z,14.60
2017-08-28T20:47:08.710Z,13.68
2017-08-28T20:49:42.372Z,13.88
2017-08-28T20:52:16.036Z,13.18
2017-08-28T20:54:49.583Z,14.32
2017-08-28T20:57:23.170Z,13.20
2017-08-28T20:59:56.718Z,13.02
2017-08-28T21:02:30.406Z,13.18
2017-08-28T21:05:03.963Z,13.15
2017-08-28T21:07:37.566Z,13.40
2017-08-28T21:10:11.135Z,12.13
2017-08-28T21:12:44.914Z,11.73
2017-08-28T21:15:18.470Z,11.45
2017-08-28T21:17:52.075Z,12.93
2017-08-28T21:20:25.697Z,11.45
2017-08-28T21:22:59.357Z,13.68
2017-08-28T21:25:33.033Z,13.10
2017-08-28T21:28:06.551Z,13.05
2017-08-28T21:30:40.079Z,11.95
2017-08-28T21:33:13.679Z,12.05
2017-08-28T21:35:47.385Z,12.43
2017-08-28T21:38:21.155Z,11.85
2017-08-28T21:40:54.733Z,12.35
2017-08-28T21:43:28.440Z,11.27
2017-08-28T21:46:02.129Z,10.63
2017-08-28T21:48:35.693Z,11.85
2017-08-28T21:51:09.294Z,11.60
2017-08-28T21:53:42.854Z,12.05
2017-08-28T21:56:16.545Z,10.90
2017-08-28T21:58:50.208Z,12.27
2017-08-28T22:01:23.807Z,10.88
2017-08-28T22:03:58.108Z,9.80
2017-08-28T22:06:31.815Z,10.23
2017-08-28T22:09:05.647Z,10.43
2017-08-28T22:11:40.326Z,11.12
2017-08-28T22:14:14.399Z,11.10
2017-08-28T22:16:48.017Z,10.95
2017-08-28T22:19:21.823Z,11.23
2017-08-28T22:21:55.603Z,10.80
2017-08-28T22:24:29.400Z,10.27
2017-08-28T22:27:03.284Z,9.88
2017-08-28T22:29:37.209Z,10.13
2017-08-28T22:32:10.949Z,11.05
2017-08-28T22:34:44.723Z,10.88
2017-08-28T22:37:18.844Z,10.63
2017-08-28T22:39:52.694Z,9.23
2017-08-28T22:42:27.902Z,8.77
2017-08-28T22:45:01.640Z,9.70
2017-08-28T22:47:35.382Z,9.70
2017-08-28T22:50:09.178Z,9.07
2017-08-28T22:52:42.954Z,10.10
2017-08-28T22:55:16.700Z,10.90
2017-08-28T22:57:50.578Z,11.12
2017-08-28T23:00:24.459Z,12.60
2017-08-28T23:02:58.239Z,11.45
2017-08-28T23:05:31.977Z,10.82
2017-08-28T23:08:05.681Z,11.75
2017-08-28T23:10:39.413Z,10.15
2017-08-28T23:13:13.203Z,11.45
2017-08-28T23:15:47.297Z,11.50
2017-08-28T23:18:21.034Z,12.20
2017-08-28T23:20:55.241Z,12.10
2017-08-28T23:23:29.728Z,12.90
2017-08-28T23:26:03.439Z,11.60
2017-08-28T23:28:37.230Z,13.77
2017-08-28T23:31:11.260Z,11.77
2017-08-28T23:33:46.224Z,10.73
2017-08-28T23:36:19.968Z,12.13
2017-08-28T23:38:53.700Z,13.43
2017-08-28T23:41:27.506Z,10.10
2017-08-28T23:44:01.411Z,9.75
2017-08-28T23:46:35.821Z,9.35
2017-08-28T23:49:09.414Z,10.00
2017-08-28T23:51:43.086Z,8.02
2017-08-28T23:54:16.873Z,8.77
2017-08-28T23:56:50.686Z,9.50
2017-08-28T23:59:24.447Z,9.73
